createdAt,value
2023-04-04T00:01:35.572Z,100361.28
2023-04-04T00:04:04.279Z,100362.03
2023-04-04T00:06:32.985Z,100357.81
2023-04-04T00:09:02.992Z,100355.28
2023-04-04T00:11:31.690Z,100351.78
2023-04-04T00:14:00.635Z,100353.44
2023-04-04T00:16:29.273Z,100349.31
2023-04-04T00:18:57.924Z,100341.72
2023-04-04T00:21:27.555Z,100351.19
2023-04-04T00:23:56.257Z,100347.09
2023-04-04T00:26:27.499Z,100349.63
2023-04-04T00:28:56.270Z,100347.84
2023-04-04T00:31:25.064Z,100341.09
2023-04-04T00:33:53.714Z,100347.09
2023-04-04T00:36:22.433Z,100353.97
2023-04-04T00:38:51.164Z,100344.75
2023-04-04T00:41:19.973Z,100350.00
2023-04-04T00:43:50.978Z,100348.44
2023-04-04T00:46:20.434Z,100344.34
2023-04-04T00:48:49.763Z,100333.38
2023-04-04T00:51:18.545Z,100335.97
2023-04-04T00:53:49.154Z,100335.16
2023-04-04T00:56:18.143Z,100336.91
2023-04-04T00:58:49.217Z,100339.50
2023-04-04T01:01:18.304Z,100330.28
2023-04-04T01:03:47.366Z,100341.31
2023-04-04T01:06:17.006Z,100338.78
2023-04-04T01:08:47.193Z,100337.13
2023-04-04T01:11:16.902Z,100334.53
2023-04-04T01:13:46.276Z,100341.22
2023-04-04T01:16:18.687Z,100343.84
2023-04-04T01:18:48.433Z,100340.53
2023-04-04T01:21:21.874Z,100337.28
2023-04-04T01:24:00.322Z,100339.06
2023-04-04T01:26:37.883Z,100332.22
2023-04-04T01:29:06.862Z,100334.69
2023-04-04T01:31:41.819Z,100327.97
2023-04-04T01:34:17.888Z,100327.25
2023-04-04T01:36:57.745Z,100322.16
2023-04-04T01:39:33.268Z,100313.72
2023-04-04T01:42:04.985Z,100318.84
2023-04-04T01:44:34.130Z,100320.50
2023-04-04T01:47:04.218Z,100319.56
2023-04-04T01:49:32.904Z,100322.16
2023-04-04T01:52:02.299Z,100313.75
2023-04-04T01:54:33.266Z,100317.19
2023-04-04T01:57:03.246Z,100322.28
2023-04-04T01:59:32.182Z,100313.88
2023-04-04T02:02:01.149Z,100321.47
2023-04-04T02:04:30.482Z,100308.97
2023-04-04T02:06:59.251Z,100314.06
2023-04-04T02:09:28.339Z,100306.59
2023-04-04T02:11:58.289Z,100311.69
2023-04-04T02:14:28.763Z,100320.28
2023-04-04T02:16:58.586Z,100311.06
2023-04-04T02:19:27.438Z,100310.28
2023-04-04T02:21:56.645Z,100313.59
2023-04-04T02:24:25.310Z,100314.38
2023-04-04T02:26:53.964Z,100313.47
2023-04-04T02:29:22.996Z,100311.75
2023-04-04T02:31:54.075Z,100312.50
2023-04-04T02:34:23.077Z,100310.03
2023-04-04T02:36:53.985Z,100311.75
2023-04-04T02:39:24.146Z,100310.03
2023-04-04T02:41:52.970Z,100312.66
2023-04-04T02:44:22.285Z,100313.59
2023-04-04T02:46:53.979Z,100313.75
2023-04-04T02:49:29.744Z,100313.06
2023-04-04T02:51:59.445Z,100314.09
2023-04-04T02:54:33.304Z,100307.53
2023-04-04T02:57:02.490Z,100310.16
2023-04-04T02:59:31.283Z,100309.41
2023-04-04T03:02:01.444Z,100306.03
2023-04-04T03:04:31.283Z,100306.03
2023-04-04T03:06:59.930Z,100308.50
2023-04-04T03:09:28.629Z,100304.34
2023-04-04T03:11:57.851Z,100307.59
2023-04-04T03:14:27.413Z,100299.91
2023-04-04T03:16:58.366Z,100301.59
2023-04-04T03:19:28.604Z,100300.81
2023-04-04T03:21:57.476Z,100304.19
2023-04-04T03:24:26.682Z,100307.53
2023-04-04T03:26:55.308Z,100295.75
2023-04-04T03:29:24.081Z,100302.56
2023-04-04T03:31:53.294Z,100300.13
2023-04-04T03:34:24.796Z,100300.13
2023-04-04T03:36:55.087Z,100295.94
2023-04-04T03:39:23.789Z,100295.16
2023-04-04T03:41:52.577Z,100295.19
2023-04-04T03:44:21.635Z,100300.31
2023-04-04T03:46:50.597Z,100305.53
2023-04-04T03:49:19.861Z,100304.78
2023-04-04T03:51:48.809Z,100304.78
2023-04-04T03:54:19.059Z,100304.84
2023-04-04T03:56:48.139Z,100294.75
2023-04-04T03:59:16.952Z,100305.69
2023-04-04T04:01:45.667Z,100301.44
2023-04-04T04:04:14.369Z,100297.25
2023-04-04T04:06:43.991Z,100300.63
2023-04-04T04:09:12.828Z,100302.41
2023-04-04T04:11:43.072Z,100300.78
2023-04-04T04:14:11.676Z,100300.09
2023-04-04T04:16:41.269Z,100303.59
2023-04-04T04:19:11.063Z,100301.94
2023-04-04T04:21:43.962Z,100302.78
2023-04-04T04:24:12.794Z,100306.25
2023-04-04T04:26:43.004Z,100298.75
2023-04-04T04:29:12.445Z,100302.19
2023-04-04T04:31:41.807Z,100299.59
2023-04-04T04:34:11.002Z,100297.06
2023-04-04T04:36:41.728Z,100306.34
2023-04-04T04:39:27.318Z,100306.41
2023-04-04T04:42:21.424Z,100303.16
2023-04-04T04:44:56.049Z,100300.66
2023-04-04T04:47:25.417Z,100312.44
2023-04-04T04:49:54.779Z,100307.38
2023-04-04T04:52:33.904Z,100306.59
2023-04-04T04:55:03.110Z,100309.91
2023-04-04T04:57:34.399Z,100304.84
2023-04-04T05:00:10.116Z,100302.31
2023-04-04T05:02:38.997Z,100311.63
2023-04-04T05:05:09.206Z,100307.44
2023-04-04T05:07:38.605Z,100312.53
2023-04-04T05:10:09.420Z,100313.41
2023-04-04T05:12:44.815Z,100312.69
2023-04-04T05:15:19.120Z,100314.38
2023-04-04T05:17:52.614Z,100309.34
2023-04-04T05:20:21.781Z,100317.00
2023-04-04T05:22:51.759Z,100319.59
2023-04-04T05:25:28.275Z,100318.78
2023-04-04T05:27:58.725Z,100316.31
2023-04-04T05:30:28.951Z,100314.63
2023-04-04T05:33:10.898Z,100331.50
2023-04-04T05:35:43.237Z,100322.19
2023-04-04T05:38:11.980Z,100327.25
2023-04-04T05:40:41.130Z,100330.59
2023-04-04T05:43:15.469Z,100324.72
2023-04-04T05:45:59.139Z,100323.03
2023-04-04T05:48:29.628Z,100321.41
2023-04-04T05:50:58.290Z,100325.56
2023-04-04T05:53:39.651Z,100327.16
2023-04-04T05:56:08.559Z,100324.47
2023-04-04T05:58:38.842Z,100323.50
2023-04-04T06:01:08.896Z,100328.44
2023-04-04T06:03:38.493Z,100318.13
2023-04-04T06:06:11.805Z,100323.06
2023-04-04T06:08:52.996Z,100321.31
2023-04-04T06:11:23.049Z,100324.59
2023-04-04T06:13:55.181Z,100326.16
2023-04-04T06:16:24.682Z,100330.34
2023-04-04T06:18:53.425Z,100323.50
2023-04-04T06:21:22.123Z,100331.00
2023-04-04T06:23:51.231Z,100328.41
2023-04-04T06:26:20.634Z,100326.63
2023-04-04T06:28:50.686Z,100330.75
2023-04-04T06:31:41.126Z,100336.59
2023-04-04T06:34:19.211Z,100336.41
2023-04-04T06:36:54.622Z,100339.69
2023-04-04T06:39:25.977Z,100322.69
2023-04-04T06:41:56.296Z,100330.13
2023-04-04T06:44:29.145Z,100332.56
2023-04-04T06:46:59.545Z,100334.97
2023-04-04T06:49:28.362Z,100339.94
2023-04-04T06:51:57.125Z,100333.03
2023-04-04T06:54:26.924Z,100332.09
2023-04-04T06:56:55.896Z,100337.13
2023-04-04T06:59:24.597Z,100329.41
2023-04-04T07:01:53.399Z,100327.53
2023-04-04T07:04:23.512Z,100332.56
2023-04-04T07:06:52.373Z,100330.84
2023-04-04T07:09:28.788Z,100330.94
2023-04-04T07:11:58.415Z,100331.16
2023-04-04T07:14:27.001Z,100330.59
2023-04-04T07:16:56.040Z,100334.88
2023-04-04T07:19:28.813Z,100332.19
2023-04-04T07:21:57.890Z,100337.88
2023-04-04T07:24:26.551Z,100322.53
2023-04-04T07:26:55.150Z,100334.19
2023-04-04T07:29:24.061Z,100323.84
2023-04-04T07:31:52.795Z,100322.88
2023-04-04T07:34:21.457Z,100326.97
2023-04-04T07:36:51.547Z,100317.47
2023-04-04T07:39:20.198Z,100313.19
2023-04-04T07:41:48.855Z,100313.09
2023-04-04T07:44:17.452Z,100321.38
2023-04-04T07:46:49.913Z,100311.84
2023-04-04T07:49:24.730Z,100316.75
2023-04-04T07:51:55.774Z,100312.34
2023-04-04T07:54:24.850Z,100312.19
2023-04-04T07:56:53.552Z,100311.22
2023-04-04T07:59:22.243Z,100320.41
2023-04-04T08:01:50.869Z,100309.31
2023-04-04T08:04:19.793Z,100310.16
2023-04-04T08:06:48.830Z,100311.25
2023-04-04T08:09:18.903Z,100309.69
2023-04-04T08:11:47.621Z,100311.41
2023-04-04T08:14:16.662Z,100320.94
2023-04-04T08:16:45.291Z,100315.94
2023-04-04T08:19:13.849Z,100318.72
2023-04-04T08:21:42.963Z,100318.28
2023-04-04T08:24:12.651Z,100318.38
2023-04-04T08:26:46.935Z,100309.22
2023-04-04T08:29:17.813Z,100318.59
2023-04-04T08:31:46.646Z,100310.16
2023-04-04T08:34:15.272Z,100326.13
2023-04-04T08:36:43.914Z,100316.06
2023-04-04T08:39:12.654Z,100318.38
2023-04-04T08:41:45.037Z,100315.66
2023-04-04T08:44:20.478Z,100313.09
2023-04-04T08:46:50.782Z,100302.72
2023-04-04T08:49:22.332Z,100300.06
2023-04-04T08:51:52.999Z,100304.97
2023-04-04T08:54:22.694Z,100306.69
2023-04-04T08:56:53.157Z,100304.91
2023-04-04T08:59:23.202Z,100302.06
2023-04-04T09:02:01.674Z,100310.38
2023-04-04T09:04:31.297Z,100317.09
2023-04-04T09:07:03.520Z,100300.81
2023-04-04T09:09:33.540Z,100312.31
2023-04-04T09:12:04.930Z,100311.38
2023-04-04T09:14:34.988Z,100308.72
2023-04-04T09:17:04.027Z,100299.84
2023-04-04T09:19:32.928Z,100303.41
2023-04-04T09:22:11.156Z,100307.84
2023-04-04T09:24:41.245Z,100296.78
2023-04-04T09:27:13.146Z,100296.69
2023-04-04T09:29:43.183Z,100296.47
2023-04-04T09:32:16.344Z,100298.00
2023-04-04T09:34:46.140Z,100287.31
2023-04-04T09:37:16.556Z,100287.63
2023-04-04T09:39:45.770Z,100287.94
2023-04-04T09:42:17.143Z,100286.72
2023-04-04T09:44:46.067Z,100292.41
2023-04-04T09:47:31.059Z,100288.66
2023-04-04T09:50:01.426Z,100283.41
2023-04-04T09:52:35.768Z,100278.06
2023-04-04T09:55:06.944Z,100284.88
2023-04-04T09:57:37.917Z,100277.19
2023-04-04T10:00:09.754Z,100278.13
2023-04-04T10:02:41.235Z,100286.88
2023-04-04T10:05:12.127Z,100278.22
2023-04-04T10:07:42.410Z,100279.53
2023-04-04T10:10:11.829Z,100284.22
2023-04-04T10:12:41.799Z,100278.84
2023-04-04T10:15:11.465Z,100285.25
2023-04-04T10:17:42.489Z,100283.31
2023-04-04T10:20:12.962Z,100279.50
2023-04-04T10:22:42.523Z,100271.22
2023-04-04T10:25:12.485Z,100271.28
2023-04-04T10:27:42.571Z,100275.50
2023-04-04T10:30:12.962Z,100266.19
2023-04-04T10:32:52.299Z,100279.19
2023-04-04T10:35:23.836Z,100260.78
2023-04-04T10:37:59.620Z,100272.13
2023-04-04T10:40:34.635Z,100275.09
2023-04-04T10:43:06.823Z,100275.59
2023-04-04T10:45:38.732Z,100279.50
2023-04-04T10:48:10.633Z,100270.41
2023-04-04T10:50:40.454Z,100278.31
2023-04-04T10:53:10.587Z,100278.81
2023-04-04T10:55:41.392Z,100273.19
2023-04-04T10:58:12.345Z,100260.69
2023-04-04T11:00:52.447Z,100261.81
2023-04-04T11:03:21.132Z,100256.94
2023-04-04T11:05:51.638Z,100249.56
2023-04-04T11:08:25.047Z,100246.41
2023-04-04T11:10:55.562Z,100243.28
2023-04-04T11:13:33.537Z,100243.47
2023-04-04T11:16:07.693Z,100243.69
2023-04-04T11:18:49.946Z,100242.28
2023-04-04T11:21:23.713Z,100238.22
2023-04-04T11:24:19.352Z,100235.81
2023-04-04T11:26:48.560Z,100231.75
2023-04-04T11:29:54.121Z,100230.47
2023-04-04T11:32:50.023Z,100223.78
2023-04-04T11:35:25.082Z,100233.06
2023-04-04T11:38:03.811Z,100236.38
2023-04-04T11:40:43.525Z,100228.56
2023-04-04T11:43:13.527Z,100225.13
2023-04-04T11:45:52.403Z,100222.59
2023-04-04T11:48:21.870Z,100220.25
2023-04-04T11:50:51.340Z,100215.28
2023-04-04T11:53:20.773Z,100212.00
2023-04-04T11:55:53.066Z,100207.84
2023-04-04T11:58:21.726Z,100199.50
2023-04-04T12:00:51.822Z,100209.84
2023-04-04T12:03:20.799Z,100204.06
2023-04-04T12:05:51.102Z,100194.78
2023-04-04T12:08:20.261Z,100204.19
2023-04-04T12:10:49.022Z,100191.59
2023-04-04T12:13:17.695Z,100199.50
2023-04-04T12:15:49.409Z,100187.06
2023-04-04T12:18:24.675Z,100193.94
2023-04-04T12:20:53.529Z,100180.47
2023-04-04T12:23:23.537Z,100178.66
2023-04-04T12:25:54.985Z,100181.19
2023-04-04T12:28:24.883Z,100183.81
2023-04-04T12:30:54.582Z,100180.72
2023-04-04T12:33:24.725Z,100176.88
2023-04-04T12:35:54.875Z,100182.94
2023-04-04T12:38:23.643Z,100181.34
2023-04-04T12:40:53.681Z,100172.25
2023-04-04T12:43:22.355Z,100162.16
2023-04-04T12:45:52.850Z,100175.81
2023-04-04T12:48:30.032Z,100168.84
2023-04-04T12:51:00.670Z,100167.78
2023-04-04T12:53:30.662Z,100161.66
2023-04-04T12:56:05.000Z,100159.72
2023-04-04T12:58:35.937Z,100153.78
2023-04-04T13:01:07.068Z,100157.94
2023-04-04T13:03:38.079Z,100150.22
2023-04-04T13:06:14.030Z,100151.81
2023-04-04T13:08:52.099Z,100148.38
2023-04-04T13:11:20.905Z,100143.94
2023-04-04T13:13:50.504Z,100154.91
2023-04-04T13:16:33.160Z,100137.00
2023-04-04T13:19:03.672Z,100139.47
2023-04-04T13:21:32.643Z,100129.19
2023-04-04T13:24:04.063Z,100129.13
2023-04-04T13:26:32.775Z,100129.00
2023-04-04T13:29:01.401Z,100135.81
2023-04-04T13:31:30.155Z,100125.53
2023-04-04T13:33:58.767Z,100129.75
2023-04-04T13:36:29.392Z,100121.22
2023-04-04T13:38:58.241Z,100116.13
2023-04-04T13:41:26.914Z,100116.13
2023-04-04T13:43:56.641Z,100114.53
2023-04-04T13:46:25.392Z,100128.09
2023-04-04T13:48:54.058Z,100117.09
2023-04-04T13:51:24.473Z,100104.25
2023-04-04T13:53:54.850Z,100108.47
2023-04-04T13:56:23.862Z,100102.56
2023-04-04T13:58:54.920Z,100098.63
2023-04-04T14:01:23.769Z,100105.66
2023-04-04T14:03:52.632Z,100095.47
2023-04-04T14:06:21.535Z,100093.69
2023-04-04T14:08:50.569Z,100079.97
2023-04-04T14:11:21.839Z,100093.53
2023-04-04T14:13:52.158Z,100091.81
2023-04-04T14:16:21.982Z,100083.19
2023-04-04T14:18:50.812Z,100089.28
2023-04-04T14:21:19.847Z,100083.25
2023-04-04T14:23:48.664Z,100079.75
2023-04-04T14:26:17.406Z,100074.53
2023-04-04T14:28:47.455Z,100072.72
2023-04-04T14:31:16.114Z,100065.00
2023-04-04T14:33:44.747Z,100063.28
2023-04-04T14:36:13.406Z,100065.84
2023-04-04T14:38:42.101Z,100057.34
2023-04-04T14:41:10.745Z,100074.38
2023-04-04T14:43:39.542Z,100059.09
2023-04-04T14:46:09.509Z,100058.13
2023-04-04T14:48:38.757Z,100061.56
2023-04-04T14:51:07.516Z,100050.75
2023-04-04T14:53:36.675Z,100045.72
2023-04-04T14:56:05.710Z,100039.81
2023-04-04T14:58:34.346Z,100048.28
2023-04-04T15:01:03.669Z,100042.28
2023-04-04T15:03:34.845Z,100040.47
2023-04-04T15:06:03.624Z,100033.59
2023-04-04T15:08:32.297Z,100041.91
2023-04-04T15:11:02.759Z,100041.84
2023-04-04T15:13:32.376Z,100038.38
2023-04-04T15:16:01.680Z,100040.94
2023-04-04T15:18:30.457Z,100038.53
2023-04-04T15:21:00.693Z,100046.34
2023-04-04T15:23:29.326Z,100044.69
2023-04-04T15:25:58.015Z,100036.22
2023-04-04T15:28:27.208Z,100037.84
2023-04-04T15:30:56.613Z,100041.97
2023-04-04T15:33:25.295Z,100033.44
2023-04-04T15:35:53.944Z,100034.34
2023-04-04T15:38:24.106Z,100027.53
2023-04-04T15:40:52.825Z,100027.47
2023-04-04T15:43:21.409Z,100018.97
2023-04-04T15:45:50.012Z,100018.06
2023-04-04T15:48:18.766Z,100022.28
2023-04-04T15:50:47.395Z,100018.00
2023-04-04T15:53:16.036Z,100022.28
2023-04-04T15:55:46.117Z,100024.03
2023-04-04T15:58:14.699Z,100017.34
2023-04-04T16:00:47.520Z,100017.53
2023-04-04T16:03:16.428Z,100019.47
2023-04-04T16:05:45.549Z,100023.22
2023-04-04T16:08:14.971Z,100015.75
2023-04-04T16:10:45.095Z,100018.13
2023-04-04T16:13:15.330Z,100010.34
2023-04-04T16:15:44.002Z,100008.56
2023-04-04T16:18:12.722Z,100006.00
2023-04-04T16:20:41.690Z,100015.16
2023-04-04T16:23:10.557Z,100010.06
2023-04-04T16:25:39.141Z,100013.38
2023-04-04T16:28:09.129Z,100009.91
2023-04-04T16:30:37.878Z,100003.09
2023-04-04T16:33:06.903Z,100003.84
2023-04-04T16:35:37.411Z,100002.94
2023-04-04T16:38:06.377Z,100001.22
2023-04-04T16:40:35.638Z,99997.09
2023-04-04T16:43:04.290Z,100001.38
2023-04-04T16:45:34.423Z,99997.25
2023-04-04T16:48:03.216Z,99991.25
2023-04-04T16:50:31.947Z,99988.84
2023-04-04T16:53:01.263Z,99995.81
2023-04-04T16:55:30.084Z,99989.38
2023-04-04T16:57:58.721Z,99994.00
2023-04-04T17:00:27.545Z,99992.69
2023-04-04T17:02:58.245Z,99992.94
2023-04-04T17:05:27.395Z,99994.88
2023-04-04T17:07:56.058Z,99998.44
2023-04-04T17:10:24.773Z,100001.16
2023-04-04T17:12:53.343Z,100000.31
2023-04-04T17:15:22.046Z,99986.59
2023-04-04T17:17:50.749Z,99998.44
2023-04-04T17:20:21.078Z,100003.69
2023-04-04T17:22:51.605Z,99999.63
2023-04-04T17:25:22.490Z,100002.31
2023-04-04T17:27:51.203Z,100000.78
2023-04-04T17:30:19.957Z,99993.31
2023-04-04T17:32:48.989Z,99992.69
2023-04-04T17:35:18.062Z,99999.59
2023-04-04T17:37:48.116Z,99999.84
2023-04-04T17:40:17.048Z,100000.88
2023-04-04T17:42:46.087Z,100005.22
2023-04-04T17:45:15.123Z,100003.56
2023-04-04T17:47:44.883Z,100003.56
2023-04-04T17:50:13.631Z,100006.19
2023-04-04T17:52:42.436Z,100006.31
2023-04-04T17:55:12.915Z,100002.94
2023-04-04T17:57:44.925Z,100002.25
2023-04-04T18:00:16.076Z,99999.84
2023-04-04T18:02:44.984Z,99997.50
2023-04-04T18:05:14.846Z,100000.09
2023-04-04T18:07:43.463Z,99994.16
2023-04-04T18:10:13.576Z,99996.72
2023-04-04T18:12:44.423Z,100002.75
2023-04-04T18:15:13.941Z,100008.69
2023-04-04T18:17:42.975Z,100007.91
2023-04-04T18:20:18.534Z,100009.72
2023-04-04T18:22:53.844Z,100004.72
2023-04-04T18:25:24.061Z,100009.78
2023-04-04T18:27:52.649Z,100012.38
2023-04-04T18:30:22.000Z,100015.06
2023-04-04T18:32:51.818Z,100017.94
2023-04-04T18:35:20.711Z,100012.31
2023-04-04T18:37:49.390Z,100024.38
2023-04-04T18:40:18.239Z,100013.66
2023-04-04T18:42:50.150Z,100022.31
2023-04-04T18:45:20.893Z,100017.34
2023-04-04T18:47:50.009Z,100025.88
2023-04-04T18:50:18.896Z,100031.75
2023-04-04T18:52:47.511Z,100030.66
2023-04-04T18:55:16.355Z,100032.97
2023-04-04T18:57:48.453Z,100031.81
2023-04-04T19:00:19.201Z,100030.84
2023-04-04T19:02:48.404Z,100028.94
2023-04-04T19:05:24.770Z,100036.50
2023-04-04T19:07:54.781Z,100044.84
2023-04-04T19:10:24.233Z,100040.44
2023-04-04T19:12:52.870Z,100042.91
2023-04-04T19:15:23.239Z,100041.94
2023-04-04T19:17:51.920Z,100048.75
2023-04-04T19:20:21.030Z,100051.38
2023-04-04T19:22:49.670Z,100045.50
2023-04-04T19:25:18.906Z,100055.63
2023-04-04T19:27:47.562Z,100049.66
2023-04-04T19:30:47.356Z,100047.09
2023-04-04T19:33:18.305Z,100051.31
2023-04-04T19:35:53.816Z,100047.09
2023-04-04T19:38:26.479Z,100056.41
2023-04-04T19:40:59.053Z,100053.84
2023-04-04T19:43:30.132Z,100054.66
2023-04-04T19:46:08.380Z,100054.59
2023-04-04T19:48:44.167Z,100049.50
2023-04-04T19:51:35.776Z,100047.03
2023-04-04T19:54:07.191Z,100047.97
2023-04-04T19:56:37.328Z,100047.97
2023-04-04T19:59:10.500Z,100049.59
2023-04-04T20:01:47.319Z,100052.97
2023-04-04T20:04:22.845Z,100058.13
2023-04-04T20:06:51.514Z,100054.75
2023-04-04T20:09:34.948Z,100057.50
2023-04-04T20:12:03.639Z,100057.63
2023-04-04T20:14:32.318Z,100056.03
2023-04-04T20:17:02.332Z,100052.72
2023-04-04T20:19:31.106Z,100051.97
2023-04-04T20:22:00.319Z,100052.00
2023-04-04T20:24:30.242Z,100049.53
2023-04-04T20:26:59.750Z,100054.56
2023-04-04T20:29:31.478Z,100057.94
2023-04-04T20:32:03.575Z,100057.09
2023-04-04T20:34:44.708Z,100059.72
2023-04-04T20:37:16.252Z,100065.88
2023-04-04T20:39:50.382Z,100064.31
2023-04-04T20:42:32.410Z,100066.97
2023-04-04T20:45:08.385Z,100056.00
2023-04-04T20:47:46.329Z,100069.59
2023-04-04T20:50:43.556Z,100068.75
2023-04-04T20:53:19.791Z,100077.28
2023-04-04T20:55:50.573Z,100079.91
2023-04-04T20:58:29.341Z,100078.25
2023-04-04T21:01:00.008Z,100072.44
2023-04-04T21:03:38.169Z,100077.53
2023-04-04T21:06:15.625Z,100072.44
2023-04-04T21:08:49.581Z,100078.41
2023-04-04T21:11:27.301Z,100082.81
2023-04-04T21:13:56.637Z,100077.72
2023-04-04T21:16:29.466Z,100072.72
2023-04-04T21:19:01.826Z,100077.81
2023-04-04T21:21:31.306Z,100080.38
2023-04-04T21:24:01.058Z,100081.34
2023-04-04T21:26:33.253Z,100080.72
2023-04-04T21:29:04.789Z,100076.63
2023-04-04T21:31:40.939Z,100074.25
2023-04-04T21:34:16.334Z,100079.47
2023-04-04T21:36:45.950Z,100077.00
2023-04-04T21:39:16.708Z,100073.69
2023-04-04T21:41:45.980Z,100073.69
2023-04-04T21:44:14.931Z,100075.41
2023-04-04T21:46:43.727Z,100083.03
2023-04-04T21:49:13.960Z,100073.81
2023-04-04T21:51:43.466Z,100078.16
2023-04-04T21:54:12.165Z,100082.31
2023-04-04T21:56:40.764Z,100071.28
2023-04-04T21:59:11.271Z,100077.94
2023-04-04T22:01:41.026Z,100076.19
2023-04-04T22:04:09.885Z,100077.81
2023-04-04T22:06:40.032Z,100071.03
2023-04-04T22:09:08.692Z,100071.91
2023-04-04T22:11:45.227Z,100075.34
2023-04-04T22:14:18.207Z,100069.38
2023-04-04T22:16:47.154Z,100059.16
2023-04-04T22:19:15.918Z,100065.00
2023-04-04T22:21:48.653Z,100065.00
2023-04-04T22:24:18.443Z,100065.69
2023-04-04T22:26:47.633Z,100058.06
2023-04-04T22:29:16.387Z,100050.44
2023-04-04T22:31:45.090Z,100054.78
2023-04-04T22:34:15.133Z,100055.66
2023-04-04T22:36:45.642Z,100048.22
2023-04-04T22:39:15.987Z,100057.63
2023-04-04T22:41:45.624Z,100051.81
2023-04-04T22:44:14.284Z,100045.16
2023-04-04T22:46:43.035Z,100048.69
2023-04-04T22:49:13.471Z,100050.56
2023-04-04T22:51:45.776Z,100047.22
2023-04-04T22:54:17.148Z,100046.41
2023-04-04T22:56:46.521Z,100040.53
2023-04-04T22:59:15.465Z,100036.25
2023-04-04T23:01:44.406Z,100032.13
2023-04-04T23:04:13.284Z,100043.28
2023-04-04T23:06:43.101Z,100033.31
2023-04-04T23:09:11.730Z,100038.56
2023-04-04T23:11:42.518Z,100031.84
2023-04-04T23:14:14.995Z,100032.75
2023-04-04T23:16:44.007Z,100032.75
2023-04-04T23:19:13.265Z,100031.91
2023-04-04T23:21:42.043Z,100027.75
2023-04-04T23:24:10.706Z,100032.97
2023-04-04T23:26:39.272Z,100031.31
2023-04-04T23:29:09.887Z,100026.28
2023-04-04T23:31:38.667Z,100019.63
2023-04-04T23:34:07.322Z,100021.28
2023-04-04T23:36:35.983Z,100023.81
2023-04-04T23:39:04.854Z,100028.16
2023-04-04T23:41:33.509Z,100022.28
2023-04-04T23:44:02.199Z,100024.94
2023-04-04T23:46:32.673Z,100021.75
2023-04-04T23:49:01.864Z,100022.63
2023-04-04T23:51:37.951Z,100018.34
2023-04-04T23:54:07.257Z,100005.72
2023-04-04T23:56:37.031Z,100014.34
2023-04-04T23:59:06.355Z,100010.88
